createdAt,value
2017-10-31T00:00:21.180Z,22.3
2017-10-31T00:01:29.373Z,22.3
2017-10-31T00:02:37.810Z,22.3
2017-10-31T00:03:46.066Z,22.3
2017-10-31T00:04:54.047Z,22.3
2017-10-31T00:06:02.313Z,22.4
2017-10-31T00:07:10.149Z,22.3
2017-10-31T00:08:17.807Z,22.4
2017-10-31T00:09:27.288Z,22.4
2017-10-31T00:10:34.045Z,22.4
2017-10-31T00:11:42.064Z,22.4
2017-10-31T00:12:50.147Z,22.4
2017-10-31T00:13:58.402Z,22.4
2017-10-31T00:15:06.663Z,22.4
2017-10-31T00:16:14.529Z,22.4
2017-10-31T00:17:22.501Z,22.4
2017-10-31T00:18:30.922Z,22.4
2017-10-31T00:19:38.679Z,22.4
2017-10-31T00:20:46.761Z,22.5
2017-10-31T00:21:54.847Z,22.5
2017-10-31T00:23:02.931Z,22.5
2017-10-31T00:24:11.373Z,22.4
2017-10-31T00:25:19.119Z,22.5
2017-10-31T00:26:27.199Z,22.5
2017-10-31T00:27:35.286Z,22.6
2017-10-31T00:28:43.374Z,22.5
2017-10-31T00:29:51.462Z,22.5
2017-10-31T00:30:59.792Z,22.5
2017-10-31T00:32:08.177Z,22.5
2017-10-31T00:33:15.887Z,22.5
2017-10-31T00:34:24.143Z,22.5
2017-10-31T00:35:32.261Z,22.5
2017-10-31T00:36:40.141Z,22.5
2017-10-31T00:37:48.311Z,22.5
2017-10-31T00:38:56.168Z,22.5
2017-10-31T00:40:04.255Z,22.5
2017-10-31T00:41:12.342Z,22.5
2017-10-31T00:42:20.428Z,22.6
2017-10-31T00:43:28.515Z,22.6
2017-10-31T00:44:36.907Z,22.6
2017-10-31T00:45:44.994Z,22.6
2017-10-31T00:46:53.082Z,22.6
2017-10-31T00:48:01.165Z,22.6
2017-10-31T00:49:09.253Z,22.6
2017-10-31T00:50:17.349Z,22.6
2017-10-31T00:51:25.434Z,22.6
2017-10-31T00:52:33.522Z,22.6
2017-10-31T00:53:41.611Z,22.6
2017-10-31T00:54:49.693Z,22.6
2017-10-31T00:55:57.852Z,22.6
2017-10-31T00:57:05.997Z,22.5
2017-10-31T00:58:14.034Z,22.6
2017-10-31T00:59:22.141Z,22.6
2017-10-31T01:00:30.229Z,22.6
2017-10-31T01:01:38.324Z,22.6
2017-10-31T01:02:46.427Z,22.6
2017-10-31T01:03:54.444Z,22.6
2017-10-31T01:05:02.530Z,22.6
2017-10-31T01:06:10.643Z,22.6
2017-10-31T01:07:18.755Z,22.6
2017-10-31T01:08:26.856Z,22.6
2017-10-31T01:09:34.836Z,22.6
2017-10-31T01:10:43.029Z,22.6
2017-10-31T01:11:51.085Z,22.6
2017-10-31T01:12:59.194Z,22.7
2017-10-31T01:14:07.184Z,22.7
2017-10-31T01:15:15.269Z,22.6
2017-10-31T01:16:23.450Z,22.6
2017-10-31T01:17:31.460Z,22.7
2017-10-31T01:18:39.555Z,22.6
2017-10-31T01:19:47.644Z,22.7
2017-10-31T01:20:55.729Z,22.6
2017-10-31T01:22:03.815Z,22.6
2017-10-31T01:23:11.903Z,22.6
2017-10-31T01:24:19.990Z,22.6
2017-10-31T01:25:28.078Z,22.6
2017-10-31T01:26:36.163Z,22.7
2017-10-31T01:27:44.251Z,22.7
2017-10-31T01:28:52.337Z,22.6
2017-10-31T01:30:00.562Z,22.7
2017-10-31T01:31:08.926Z,22.6
2017-10-31T01:32:16.602Z,22.7
2017-10-31T01:33:24.796Z,22.8
2017-10-31T01:34:32.784Z,22.8
2017-10-31T01:35:40.873Z,22.7
2017-10-31T01:36:48.944Z,22.8
2017-10-31T01:37:57.031Z,22.8
2017-10-31T01:39:05.627Z,22.8
2017-10-31T01:40:13.265Z,22.8
2017-10-31T01:41:21.293Z,22.8
2017-10-31T01:42:29.379Z,22.8
2017-10-31T01:43:37.466Z,22.8
2017-10-31T01:44:45.644Z,22.8
2017-10-31T01:45:53.731Z,22.7
2017-10-31T01:47:02.125Z,22.7
2017-10-31T01:48:09.907Z,22.8
2017-10-31T01:49:18.003Z,22.8
2017-10-31T01:50:26.081Z,22.8
2017-10-31T01:51:34.168Z,22.8
2017-10-31T01:52:42.254Z,22.7
2017-10-31T01:53:50.340Z,22.7
2017-10-31T01:54:58.428Z,22.8
2017-10-31T01:56:06.515Z,22.8
2017-10-31T01:57:14.601Z,22.8
2017-10-31T01:58:22.690Z,22.8
2017-10-31T01:59:30.778Z,22.7
2017-10-31T02:00:38.866Z,22.8
2017-10-31T02:01:46.950Z,22.8
2017-10-31T02:02:55.043Z,22.8
2017-10-31T02:04:03.123Z,22.7
2017-10-31T02:05:11.211Z,22.7
2017-10-31T02:06:19.297Z,22.7
2017-10-31T02:07:27.392Z,22.7
2017-10-31T02:08:35.489Z,22.8
2017-10-31T02:09:43.577Z,22.8
2017-10-31T02:10:51.659Z,22.8
2017-10-31T02:11:59.757Z,22.7
2017-10-31T02:13:07.843Z,22.7
2017-10-31T02:14:15.930Z,22.7
2017-10-31T02:15:24.021Z,22.7
2017-10-31T02:16:32.112Z,22.8
2017-10-31T02:17:40.191Z,22.8
2017-10-31T02:18:48.278Z,22.8
2017-10-31T02:19:56.364Z,22.8
2017-10-31T02:21:04.452Z,22.8
2017-10-31T02:22:12.544Z,22.8
2017-10-31T02:23:20.627Z,22.8
2017-10-31T02:24:28.759Z,22.8
2017-10-31T02:25:36.802Z,22.8
2017-10-31T02:26:44.891Z,22.8
2017-10-31T02:27:52.975Z,22.7
2017-10-31T02:29:01.060Z,22.8
2017-10-31T02:30:09.151Z,22.8
2017-10-31T02:31:17.240Z,22.7
2017-10-31T02:32:25.341Z,22.8
2017-10-31T02:33:33.410Z,22.7
2017-10-31T02:34:41.501Z,22.7
2017-10-31T02:35:49.585Z,22.8
2017-10-31T02:36:57.671Z,22.8
2017-10-31T02:38:05.756Z,22.7
2017-10-31T02:39:13.844Z,22.6
2017-10-31T02:40:21.930Z,22.7
2017-10-31T02:41:30.028Z,22.6
2017-10-31T02:42:38.105Z,22.8
2017-10-31T02:43:46.195Z,22.6
2017-10-31T02:44:54.286Z,22.7
2017-10-31T02:46:02.374Z,22.6
2017-10-31T02:47:10.459Z,22.6
2017-10-31T02:48:18.545Z,22.7
2017-10-31T02:49:26.636Z,22.6
2017-10-31T02:50:34.721Z,22.6
2017-10-31T02:51:42.808Z,22.7
2017-10-31T02:52:50.903Z,22.6
2017-10-31T02:53:58.989Z,22.6
2017-10-31T02:55:07.075Z,22.6
2017-10-31T02:56:15.160Z,22.7
2017-10-31T02:57:23.247Z,22.7
2017-10-31T02:58:31.336Z,22.7
2017-10-31T02:59:39.421Z,22.6
2017-10-31T03:00:47.509Z,22.6
2017-10-31T03:01:55.597Z,22.6
2017-10-31T03:03:03.684Z,22.6
2017-10-31T03:04:11.770Z,22.6
2017-10-31T03:05:19.857Z,22.6
2017-10-31T03:06:27.944Z,22.6
2017-10-31T03:07:36.035Z,22.6
2017-10-31T03:08:44.118Z,22.7
2017-10-31T03:09:52.208Z,22.6
2017-10-31T03:11:00.296Z,22.6
2017-10-31T03:12:08.381Z,22.6
2017-10-31T03:13:16.467Z,22.6
2017-10-31T03:14:24.554Z,22.6
2017-10-31T03:15:32.641Z,22.6
2017-10-31T03:16:40.728Z,22.6
2017-10-31T03:17:48.815Z,22.6
2017-10-31T03:18:56.903Z,22.5
2017-10-31T03:20:04.989Z,22.5
2017-10-31T03:21:13.077Z,22.5
2017-10-31T03:22:21.165Z,22.5
2017-10-31T03:23:29.251Z,22.5
2017-10-31T03:24:37.338Z,22.5
2017-10-31T03:25:45.426Z,22.5
2017-10-31T03:26:53.514Z,22.5
2017-10-31T03:28:01.603Z,22.5
2017-10-31T03:29:09.730Z,22.5
2017-10-31T03:30:17.774Z,22.5
2017-10-31T03:31:25.858Z,22.5
2017-10-31T03:32:33.948Z,22.5
2017-10-31T03:33:42.033Z,22.4
2017-10-31T03:34:50.122Z,22.5
2017-10-31T03:35:58.209Z,22.5
2017-10-31T03:37:06.304Z,22.5
2017-10-31T03:38:14.383Z,22.5
2017-10-31T03:39:22.470Z,22.5
2017-10-31T03:40:30.560Z,22.4
2017-10-31T03:41:38.643Z,22.4
2017-10-31T03:42:46.730Z,22.3
2017-10-31T03:43:54.818Z,22.4
2017-10-31T03:45:02.904Z,22.4
2017-10-31T03:46:10.995Z,22.4
2017-10-31T03:47:19.090Z,22.4
2017-10-31T03:48:27.177Z,22.4
2017-10-31T03:49:35.306Z,22.4
2017-10-31T03:50:43.352Z,22.3
2017-10-31T03:51:51.447Z,22.3
2017-10-31T03:52:59.523Z,22.3
2017-10-31T03:54:07.610Z,22.3
2017-10-31T03:55:15.699Z,22.3
2017-10-31T03:56:23.784Z,22.2
2017-10-31T03:57:31.874Z,22.3
2017-10-31T03:58:39.960Z,22.2
2017-10-31T03:59:48.046Z,22.3
2017-10-31T04:00:56.140Z,22.2
2017-10-31T04:02:04.220Z,22.3
2017-10-31T04:03:12.308Z,22.3
2017-10-31T04:04:20.394Z,22.3
2017-10-31T04:05:28.483Z,22.2
2017-10-31T04:06:36.571Z,22.2
2017-10-31T04:07:44.656Z,22.2
2017-10-31T04:08:52.748Z,22.2
2017-10-31T04:10:00.829Z,22.2
2017-10-31T04:11:08.966Z,22.2
2017-10-31T04:12:17.072Z,22.2
2017-10-31T04:13:25.143Z,22.1
2017-10-31T04:14:33.227Z,22.1
2017-10-31T04:15:41.323Z,22.1
2017-10-31T04:16:49.408Z,22.2
2017-10-31T04:17:57.496Z,22.1
2017-10-31T04:19:05.581Z,22.1
2017-10-31T04:20:13.672Z,22.1
2017-10-31T04:21:21.760Z,22.1
2017-10-31T04:22:29.845Z,22.1
2017-10-31T04:23:37.931Z,22.1
2017-10-31T04:24:46.020Z,22.1
2017-10-31T04:25:54.106Z,22.1
2017-10-31T04:27:02.194Z,22.0
2017-10-31T04:28:10.303Z,22.1
2017-10-31T04:29:18.389Z,22.0
2017-10-31T04:30:26.475Z,22.0
2017-10-31T04:31:34.688Z,22.0
2017-10-31T04:32:42.774Z,21.9
2017-10-31T04:33:50.860Z,22.0
2017-10-31T04:34:58.952Z,22.0
2017-10-31T04:36:07.032Z,21.9
2017-10-31T04:37:15.122Z,22.0
2017-10-31T04:38:23.212Z,21.9
2017-10-31T04:39:31.302Z,21.9
2017-10-31T04:40:39.390Z,21.9
2017-10-31T04:41:47.473Z,21.9
2017-10-31T04:42:55.562Z,22.0
2017-10-31T04:44:03.648Z,21.9
2017-10-31T04:45:11.735Z,21.9
2017-10-31T04:46:19.824Z,21.9
2017-10-31T04:47:27.921Z,21.8
2017-10-31T04:48:36.008Z,21.8
2017-10-31T04:49:44.093Z,21.8
2017-10-31T04:50:52.177Z,21.8
2017-10-31T04:52:00.263Z,21.8
2017-10-31T04:53:08.352Z,21.8
2017-10-31T04:54:16.437Z,21.8
2017-10-31T04:55:24.523Z,21.8
2017-10-31T04:56:32.640Z,21.7
2017-10-31T04:57:40.703Z,21.7
2017-10-31T04:58:48.791Z,21.7
2017-10-31T04:59:56.889Z,21.7
2017-10-31T05:01:04.966Z,21.7
2017-10-31T05:02:13.062Z,21.7
2017-10-31T05:03:21.153Z,21.7
2017-10-31T05:04:29.258Z,21.7
2017-10-31T05:05:37.326Z,21.7
2017-10-31T05:06:45.418Z,21.6
2017-10-31T05:07:53.504Z,21.6
2017-10-31T05:09:01.596Z,21.7
2017-10-31T05:10:09.680Z,21.8
2017-10-31T05:11:17.765Z,21.6
2017-10-31T05:12:25.855Z,21.7
2017-10-31T05:13:33.937Z,21.6
2017-10-31T05:14:42.022Z,21.7
2017-10-31T05:15:50.130Z,21.6
2017-10-31T05:16:58.204Z,21.7
2017-10-31T05:18:06.284Z,21.7
2017-10-31T05:19:14.370Z,21.6
2017-10-31T05:20:22.457Z,21.7
2017-10-31T05:21:30.541Z,21.6
2017-10-31T05:22:38.631Z,21.5
2017-10-31T05:23:46.711Z,21.6
2017-10-31T05:24:54.796Z,21.6
2017-10-31T05:26:02.887Z,21.5
2017-10-31T05:27:10.971Z,21.6
2017-10-31T05:28:19.228Z,21.5
2017-10-31T05:29:27.142Z,21.6
2017-10-31T05:30:35.233Z,21.5
2017-10-31T05:31:43.313Z,21.4
2017-10-31T05:32:51.401Z,21.4
2017-10-31T05:33:59.489Z,21.4
2017-10-31T05:35:07.575Z,21.4
2017-10-31T05:36:15.661Z,21.4
2017-10-31T05:37:23.841Z,21.4
2017-10-31T05:38:31.842Z,21.4
2017-10-31T05:39:39.925Z,21.3
2017-10-31T05:40:48.019Z,21.3
2017-10-31T05:41:56.123Z,21.3
2017-10-31T05:43:04.189Z,21.3
2017-10-31T05:44:12.276Z,21.3
2017-10-31T05:45:20.369Z,21.3
2017-10-31T05:46:28.457Z,21.3
2017-10-31T05:47:36.540Z,21.2
2017-10-31T05:48:44.625Z,21.2
2017-10-31T05:49:52.711Z,21.2
2017-10-31T05:51:00.798Z,21.2
2017-10-31T05:52:08.884Z,21.2
2017-10-31T05:53:16.970Z,21.1
2017-10-31T05:54:25.055Z,21.1
2017-10-31T05:55:33.143Z,21.2
2017-10-31T05:56:41.229Z,21.1
2017-10-31T05:57:49.321Z,21.2
2017-10-31T05:58:57.402Z,21.1
2017-10-31T06:00:05.486Z,21.1
2017-10-31T06:01:13.572Z,21.0
2017-10-31T06:02:21.660Z,21.1
2017-10-31T06:03:29.745Z,21.1
2017-10-31T06:04:37.830Z,21.0
2017-10-31T06:05:45.916Z,21.1
2017-10-31T06:06:54.153Z,21.0
2017-10-31T06:08:02.238Z,21.0
2017-10-31T06:09:10.324Z,21.1
2017-10-31T06:10:18.422Z,21.0
2017-10-31T06:11:26.495Z,21.0
2017-10-31T06:12:34.580Z,21.0
2017-10-31T06:13:42.676Z,21.0
2017-10-31T06:14:50.757Z,21.0
2017-10-31T06:15:58.843Z,20.9
2017-10-31T06:17:06.946Z,20.9
2017-10-31T06:18:15.015Z,21.0
2017-10-31T06:19:23.097Z,20.9
2017-10-31T06:20:31.182Z,20.9
2017-10-31T06:21:39.267Z,20.9
2017-10-31T06:22:47.352Z,20.9
2017-10-31T06:23:55.437Z,20.9
2017-10-31T06:25:03.527Z,20.9
2017-10-31T06:26:11.611Z,20.9
2017-10-31T06:27:19.698Z,20.9
2017-10-31T06:28:27.783Z,20.8
2017-10-31T06:29:35.867Z,20.8
2017-10-31T06:30:43.963Z,20.8
2017-10-31T06:31:52.058Z,20.9
2017-10-31T06:33:00.147Z,20.8
2017-10-31T06:34:09.004Z,20.8
2017-10-31T06:35:17.088Z,20.9
2017-10-31T06:36:25.176Z,20.7
2017-10-31T06:37:33.259Z,20.7
2017-10-31T06:38:41.345Z,20.8
2017-10-31T06:39:49.433Z,20.7
2017-10-31T06:40:57.519Z,20.8
2017-10-31T06:42:05.609Z,20.7
2017-10-31T06:43:13.689Z,20.7
2017-10-31T06:44:21.773Z,20.7
2017-10-31T06:45:30.119Z,20.7
2017-10-31T06:46:37.948Z,20.6
2017-10-31T06:47:46.029Z,20.7
2017-10-31T06:48:54.120Z,20.6
2017-10-31T06:50:02.205Z,20.6
2017-10-31T06:51:10.291Z,20.6
2017-10-31T06:52:18.376Z,20.6
2017-10-31T06:53:26.468Z,20.6
2017-10-31T06:54:34.547Z,20.6
2017-10-31T06:55:42.637Z,20.5
2017-10-31T06:56:50.720Z,20.5
2017-10-31T06:57:58.810Z,20.5
2017-10-31T06:59:06.908Z,20.5
2017-10-31T07:00:14.996Z,20.5
2017-10-31T07:01:23.080Z,20.5
2017-10-31T07:02:31.165Z,20.5
2017-10-31T07:03:39.250Z,20.5
2017-10-31T07:04:47.338Z,20.5
2017-10-31T07:05:55.423Z,20.4
2017-10-31T07:07:03.508Z,20.4
2017-10-31T07:08:11.595Z,20.5
2017-10-31T07:09:19.680Z,20.5
2017-10-31T07:10:27.767Z,20.5
2017-10-31T07:11:35.855Z,20.4
2017-10-31T07:12:43.940Z,20.5
2017-10-31T07:13:52.035Z,20.4
2017-10-31T07:15:00.119Z,20.4
2017-10-31T07:16:08.283Z,20.4
2017-10-31T07:17:16.438Z,20.3
2017-10-31T07:18:24.374Z,20.4
2017-10-31T07:19:32.461Z,20.3
2017-10-31T07:20:40.558Z,20.4
2017-10-31T07:21:48.643Z,20.4
2017-10-31T07:22:56.729Z,20.4
2017-10-31T07:24:04.824Z,20.3
2017-10-31T07:25:12.916Z,20.3
2017-10-31T07:26:21.008Z,20.3
2017-10-31T07:27:29.090Z,20.3
2017-10-31T07:28:37.171Z,20.3
2017-10-31T07:29:45.258Z,20.2
2017-10-31T07:30:53.346Z,20.2
2017-10-31T07:32:01.441Z,20.2
2017-10-31T07:33:09.673Z,20.3
2017-10-31T07:34:18.339Z,20.1
2017-10-31T07:35:26.420Z,20.2
2017-10-31T07:36:34.505Z,20.2
2017-10-31T07:37:42.589Z,20.2
2017-10-31T07:38:50.673Z,20.2
2017-10-31T07:39:58.758Z,20.2
2017-10-31T07:41:06.843Z,20.2
2017-10-31T07:42:14.927Z,20.2
2017-10-31T07:43:23.014Z,20.1
2017-10-31T07:44:31.098Z,20.1
2017-10-31T07:45:39.208Z,20.1
2017-10-31T07:46:47.271Z,20.1
2017-10-31T07:47:55.368Z,20.1
2017-10-31T07:49:03.578Z,20.1
2017-10-31T07:50:11.525Z,20.1
2017-10-31T07:51:19.609Z,20.1
2017-10-31T07:52:27.696Z,20.1
2017-10-31T07:53:35.784Z,20.1
2017-10-31T07:54:43.877Z,20.0
2017-10-31T07:55:51.961Z,20.1
2017-10-31T07:57:00.036Z,20.0
2017-10-31T07:58:08.127Z,20.0
2017-10-31T07:59:16.216Z,20.0
2017-10-31T08:00:24.302Z,20.0
2017-10-31T08:01:32.389Z,20.0
2017-10-31T08:02:40.474Z,20.0
2017-10-31T08:03:48.560Z,20.0
2017-10-31T08:04:56.645Z,20.0
2017-10-31T08:06:04.731Z,20.0
2017-10-31T08:07:12.814Z,19.9
2017-10-31T08:08:20.899Z,19.9
2017-10-31T08:09:28.984Z,20.0
2017-10-31T08:10:37.071Z,20.0
2017-10-31T08:11:45.155Z,20.0
2017-10-31T08:12:53.246Z,19.9
2017-10-31T08:14:01.324Z,20.0
2017-10-31T08:15:09.410Z,20.0
2017-10-31T08:16:17.496Z,19.9
2017-10-31T08:17:25.578Z,20.0
2017-10-31T08:18:33.665Z,20.0
2017-10-31T08:19:41.750Z,20.0
2017-10-31T08:20:49.938Z,20.0
2017-10-31T08:21:57.920Z,19.9
2017-10-31T08:23:06.006Z,19.9
2017-10-31T08:24:14.088Z,19.9
2017-10-31T08:25:22.175Z,20.0
2017-10-31T08:26:30.259Z,19.9
2017-10-31T08:27:38.352Z,19.9
2017-10-31T08:28:46.434Z,19.9
2017-10-31T08:29:54.514Z,19.9
2017-10-31T08:31:02.600Z,19.9
2017-10-31T08:32:10.687Z,19.9
2017-10-31T08:33:18.772Z,19.9
2017-10-31T08:34:26.866Z,19.8
2017-10-31T08:35:34.941Z,19.9
2017-10-31T08:36:43.024Z,19.9
2017-10-31T08:37:51.119Z,19.9
2017-10-31T08:38:59.205Z,19.9
2017-10-31T08:40:07.292Z,19.9
2017-10-31T08:41:15.383Z,19.8
2017-10-31T08:42:23.460Z,19.8
2017-10-31T08:43:31.562Z,19.8
2017-10-31T08:44:39.629Z,19.9
2017-10-31T08:45:47.713Z,19.7
2017-10-31T08:46:55.803Z,19.7
2017-10-31T08:48:03.891Z,19.8
2017-10-31T08:49:11.972Z,19.7
2017-10-31T08:50:20.059Z,19.8
2017-10-31T08:51:28.148Z,19.8
2017-10-31T08:52:36.248Z,19.8
2017-10-31T08:53:44.334Z,19.8
2017-10-31T08:54:52.418Z,19.8
2017-10-31T08:56:00.504Z,19.7
2017-10-31T08:57:08.591Z,19.7
2017-10-31T08:58:16.721Z,19.8
2017-10-31T08:59:24.788Z,19.7
2017-10-31T09:00:32.844Z,19.8
2017-10-31T09:01:40.989Z,19.7
2017-10-31T09:02:49.102Z,19.8
2017-10-31T09:03:57.112Z,19.8
2017-10-31T09:05:05.397Z,19.7
2017-10-31T09:06:13.283Z,19.7
2017-10-31T09:07:21.365Z,19.7
2017-10-31T09:08:29.460Z,19.7
2017-10-31T09:09:37.543Z,19.7
2017-10-31T09:10:45.631Z,19.7
2017-10-31T09:11:53.714Z,19.7
2017-10-31T09:13:01.800Z,19.7
2017-10-31T09:14:09.883Z,19.7
2017-10-31T09:15:17.978Z,19.6
2017-10-31T09:16:26.055Z,19.7
2017-10-31T09:17:34.139Z,19.7
2017-10-31T09:18:42.224Z,19.7
2017-10-31T09:19:50.326Z,19.7
2017-10-31T09:20:58.393Z,19.7
2017-10-31T09:22:06.481Z,19.8
2017-10-31T09:23:14.564Z,19.7
2017-10-31T09:24:22.654Z,19.7
2017-10-31T09:25:30.733Z,19.7
2017-10-31T09:26:38.827Z,19.7
2017-10-31T09:27:46.911Z,19.7
2017-10-31T09:28:54.992Z,19.6
2017-10-31T09:30:03.078Z,19.7
2017-10-31T09:31:11.164Z,19.8
2017-10-31T09:32:19.248Z,19.6
2017-10-31T09:33:27.331Z,19.7
2017-10-31T09:34:35.416Z,19.7
2017-10-31T09:35:43.502Z,19.6
2017-10-31T09:36:51.588Z,19.8
2017-10-31T09:37:59.671Z,19.6
2017-10-31T09:39:07.759Z,19.7
2017-10-31T09:40:15.844Z,19.7
2017-10-31T09:41:23.929Z,19.6
2017-10-31T09:42:32.013Z,19.6
2017-10-31T09:43:40.097Z,19.7
2017-10-31T09:44:48.180Z,19.6
2017-10-31T09:45:56.267Z,19.7
2017-10-31T09:47:04.353Z,19.6
2017-10-31T09:48:12.439Z,19.7
2017-10-31T09:49:20.523Z,19.7
2017-10-31T09:50:28.608Z,19.7
2017-10-31T09:51:36.693Z,19.7
2017-10-31T09:52:44.777Z,19.6
2017-10-31T09:53:52.861Z,19.6
2017-10-31T09:55:02.179Z,19.6
2017-10-31T09:56:09.046Z,19.7
2017-10-31T09:57:17.137Z,19.6
2017-10-31T09:58:25.224Z,19.7
2017-10-31T09:59:33.311Z,19.6
2017-10-31T10:00:41.388Z,19.6
2017-10-31T10:01:49.471Z,19.6
2017-10-31T10:02:57.559Z,19.6
2017-10-31T10:04:05.651Z,19.6
2017-10-31T10:05:13.738Z,19.6
2017-10-31T10:06:21.823Z,19.6
2017-10-31T10:07:29.905Z,19.6
2017-10-31T10:08:38.069Z,19.6
2017-10-31T10:09:46.078Z,19.6
2017-10-31T10:10:54.166Z,19.6
2017-10-31T10:12:02.263Z,19.6
2017-10-31T10:13:10.335Z,19.6
2017-10-31T10:14:18.421Z,19.6
2017-10-31T10:15:26.506Z,19.6
2017-10-31T10:16:34.592Z,19.6
2017-10-31T10:17:42.676Z,19.6
2017-10-31T10:18:50.772Z,19.6
2017-10-31T10:19:58.853Z,19.6
2017-10-31T10:21:06.936Z,19.6
2017-10-31T10:22:15.018Z,19.6
2017-10-31T10:23:23.108Z,19.5
2017-10-31T10:24:31.188Z,19.6
2017-10-31T10:25:39.274Z,19.6
2017-10-31T10:26:47.357Z,19.6
2017-10-31T10:27:55.443Z,19.6
2017-10-31T10:29:03.523Z,19.6
2017-10-31T10:30:11.620Z,19.5
2017-10-31T10:31:19.702Z,19.5
2017-10-31T10:32:27.793Z,19.5
2017-10-31T10:33:35.866Z,19.6
2017-10-31T10:34:43.959Z,19.6
2017-10-31T10:35:52.038Z,19.6
2017-10-31T10:37:00.132Z,19.6
2017-10-31T10:38:08.224Z,19.6
2017-10-31T10:39:16.301Z,19.5
2017-10-31T10:40:24.387Z,19.5
2017-10-31T10:41:32.479Z,19.6
2017-10-31T10:42:40.561Z,19.6
2017-10-31T10:43:48.925Z,19.6
2017-10-31T10:44:56.728Z,19.6
2017-10-31T10:46:04.812Z,19.5
2017-10-31T10:47:12.898Z,19.6
2017-10-31T10:48:20.985Z,19.6
2017-10-31T10:49:29.069Z,19.6
2017-10-31T10:50:37.154Z,19.5
2017-10-31T10:51:45.240Z,19.5
2017-10-31T10:52:53.326Z,19.5
2017-10-31T10:54:01.408Z,19.6
2017-10-31T10:55:09.493Z,19.6
2017-10-31T10:56:17.578Z,19.6
2017-10-31T10:57:25.662Z,19.5
2017-10-31T10:58:33.749Z,19.5
2017-10-31T10:59:41.839Z,19.5
2017-10-31T11:00:49.919Z,19.5
2017-10-31T11:01:58.013Z,19.6
2017-10-31T11:03:06.094Z,19.6
2017-10-31T11:04:14.174Z,19.5
2017-10-31T11:05:22.259Z,19.6
2017-10-31T11:06:30.351Z,19.6
2017-10-31T11:07:38.439Z,19.6
2017-10-31T11:08:46.523Z,19.5
2017-10-31T11:09:54.608Z,19.5
2017-10-31T11:11:02.693Z,19.5
2017-10-31T11:12:10.778Z,19.6
2017-10-31T11:13:18.862Z,19.5
2017-10-31T11:14:26.951Z,19.5
2017-10-31T11:15:35.036Z,19.5
2017-10-31T11:16:43.120Z,19.5
2017-10-31T11:17:51.205Z,19.6
2017-10-31T11:18:59.295Z,19.5
2017-10-31T11:20:07.376Z,19.5
2017-10-31T11:21:15.467Z,19.4
2017-10-31T11:22:23.567Z,19.4
2017-10-31T11:23:31.630Z,19.4
2017-10-31T11:24:39.716Z,19.5
2017-10-31T11:25:47.799Z,19.5
2017-10-31T11:26:55.893Z,19.5
2017-10-31T11:28:03.974Z,19.4
2017-10-31T11:29:12.055Z,19.5
2017-10-31T11:30:20.150Z,19.5
2017-10-31T11:31:28.233Z,19.5
2017-10-31T11:32:36.317Z,19.4
2017-10-31T11:33:44.404Z,19.4
2017-10-31T11:34:52.499Z,19.5
2017-10-31T11:36:00.594Z,19.4
2017-10-31T11:37:08.660Z,19.4
2017-10-31T11:38:16.744Z,19.4
2017-10-31T11:39:24.844Z,19.4
2017-10-31T11:40:34.029Z,19.5
2017-10-31T11:41:41.006Z,19.4
2017-10-31T11:42:49.083Z,19.5
2017-10-31T11:43:57.166Z,19.4
2017-10-31T11:45:05.255Z,19.4
2017-10-31T11:46:13.337Z,19.4
2017-10-31T11:47:21.430Z,19.3
2017-10-31T11:48:29.506Z,19.4
2017-10-31T11:49:37.599Z,19.5
2017-10-31T11:50:45.675Z,19.4
2017-10-31T11:51:53.763Z,19.4
2017-10-31T11:53:01.850Z,19.4
2017-10-31T11:54:09.931Z,19.4
2017-10-31T11:55:18.016Z,19.4
2017-10-31T11:56:26.101Z,19.4
2017-10-31T11:57:34.188Z,19.4
2017-10-31T11:58:42.271Z,19.3
2017-10-31T11:59:50.356Z,19.4
2017-10-31T12:00:58.442Z,19.4
2017-10-31T12:02:06.523Z,19.3
2017-10-31T12:03:14.606Z,19.4
2017-10-31T12:04:22.702Z,19.4
2017-10-31T12:05:30.782Z,19.4
2017-10-31T12:06:38.962Z,19.4
2017-10-31T12:07:46.949Z,19.4
2017-10-31T12:08:55.035Z,19.4
2017-10-31T12:10:03.119Z,19.3
2017-10-31T12:11:11.201Z,19.3
2017-10-31T12:12:19.288Z,19.3
2017-10-31T12:13:27.372Z,19.3
2017-10-31T12:14:35.458Z,19.2
2017-10-31T12:15:43.541Z,19.4
2017-10-31T12:16:51.647Z,19.3
2017-10-31T12:17:59.712Z,19.3
2017-10-31T12:19:07.798Z,19.4
2017-10-31T12:20:15.885Z,19.3
2017-10-31T12:21:23.977Z,19.2
2017-10-31T12:22:32.055Z,19.3
2017-10-31T12:23:40.159Z,19.3
2017-10-31T12:24:48.244Z,19.4
2017-10-31T12:25:56.326Z,19.3
2017-10-31T12:27:04.413Z,19.3
2017-10-31T12:28:12.496Z,19.2
2017-10-31T12:29:20.584Z,19.3
2017-10-31T12:30:28.667Z,19.2
2017-10-31T12:31:36.750Z,19.3
2017-10-31T12:32:44.836Z,19.3
2017-10-31T12:33:52.932Z,19.3
2017-10-31T12:35:01.140Z,19.2
2017-10-31T12:36:09.105Z,19.2
2017-10-31T12:37:17.201Z,19.3
2017-10-31T12:38:25.283Z,19.3
2017-10-31T12:39:33.372Z,19.2
2017-10-31T12:40:41.457Z,19.3
2017-10-31T12:41:49.537Z,19.3
2017-10-31T12:42:57.621Z,19.3
2017-10-31T12:44:05.706Z,19.2
2017-10-31T12:45:13.810Z,19.3
2017-10-31T12:46:21.879Z,19.2
2017-10-31T12:47:29.969Z,19.2
2017-10-31T12:48:38.046Z,19.3
2017-10-31T12:49:46.133Z,19.3
2017-10-31T12:50:54.215Z,19.3
2017-10-31T12:52:02.302Z,19.3
2017-10-31T12:53:10.387Z,19.3
2017-10-31T12:54:18.474Z,19.2
2017-10-31T12:55:26.556Z,19.3
2017-10-31T12:56:34.643Z,19.3
2017-10-31T12:57:42.754Z,19.2
2017-10-31T12:58:50.846Z,19.3
2017-10-31T12:59:58.923Z,19.2
2017-10-31T13:01:07.008Z,19.3
2017-10-31T13:02:15.102Z,19.3
2017-10-31T13:03:23.212Z,19.3
2017-10-31T13:04:31.280Z,19.2
2017-10-31T13:05:39.408Z,19.2
2017-10-31T13:06:47.453Z,19.3
2017-10-31T13:07:55.680Z,19.2
2017-10-31T13:09:03.623Z,19.2
2017-10-31T13:10:11.717Z,19.2
2017-10-31T13:11:19.804Z,19.2
2017-10-31T13:12:27.885Z,19.3
2017-10-31T13:13:35.970Z,19.2
2017-10-31T13:14:44.065Z,19.2
2017-10-31T13:15:52.513Z,19.2
2017-10-31T13:17:00.591Z,19.2
2017-10-31T13:18:08.696Z,19.2
2017-10-31T13:19:16.759Z,19.2
2017-10-31T13:20:24.843Z,19.2
2017-10-31T13:21:33.082Z,19.2
2017-10-31T13:22:41.018Z,19.2
2017-10-31T13:23:49.111Z,19.2
2017-10-31T13:24:57.194Z,19.2
2017-10-31T13:26:05.278Z,19.2
2017-10-31T13:27:13.359Z,19.2
2017-10-31T13:28:21.556Z,19.2
2017-10-31T13:29:29.532Z,19.2
2017-10-31T13:30:37.616Z,19.1
2017-10-31T13:31:45.699Z,19.2
2017-10-31T13:32:53.784Z,19.2
2017-10-31T13:34:01.881Z,19.2
2017-10-31T13:35:09.959Z,19.2
2017-10-31T13:36:18.041Z,19.2
2017-10-31T13:37:26.132Z,19.1
2017-10-31T13:38:34.219Z,19.2
2017-10-31T13:39:42.307Z,19.2
2017-10-31T13:40:50.391Z,19.2
2017-10-31T13:41:58.474Z,19.2
2017-10-31T13:43:06.558Z,19.2
2017-10-31T13:44:14.644Z,19.2
2017-10-31T13:45:22.743Z,19.2
2017-10-31T13:46:30.823Z,19.3
2017-10-31T13:47:38.909Z,19.2
2017-10-31T13:48:46.994Z,19.3
2017-10-31T13:49:55.081Z,19.2
2017-10-31T13:51:03.164Z,19.2
2017-10-31T13:52:11.250Z,19.2
2017-10-31T13:53:19.332Z,19.3
2017-10-31T13:54:27.422Z,19.3
2017-10-31T13:55:35.505Z,19.3
2017-10-31T13:56:43.590Z,19.3
2017-10-31T13:57:51.681Z,19.3
2017-10-31T13:59:00.221Z,19.2
2017-10-31T14:00:08.304Z,19.4
2017-10-31T14:01:16.390Z,19.3
2017-10-31T14:02:24.475Z,19.4
2017-10-31T14:03:32.559Z,19.3
2017-10-31T14:04:40.648Z,19.4
2017-10-31T14:05:48.727Z,19.4
2017-10-31T14:06:56.813Z,19.4
2017-10-31T14:08:04.898Z,19.4
2017-10-31T14:09:12.989Z,19.4
2017-10-31T14:10:22.137Z,19.4
2017-10-31T14:11:30.222Z,19.4
2017-10-31T14:12:38.307Z,19.4
2017-10-31T14:13:46.389Z,19.5
2017-10-31T14:14:54.475Z,19.4
2017-10-31T14:16:02.560Z,19.4
2017-10-31T14:17:10.658Z,19.5
2017-10-31T14:18:18.731Z,19.5
2017-10-31T14:19:26.816Z,19.4
2017-10-31T14:20:34.900Z,19.5
2017-10-31T14:21:42.985Z,19.5
2017-10-31T14:22:51.071Z,19.5
2017-10-31T14:23:59.153Z,19.6
2017-10-31T14:25:07.238Z,19.6
2017-10-31T14:26:15.341Z,19.6
2017-10-31T14:27:23.417Z,19.6
2017-10-31T14:28:31.508Z,19.6
2017-10-31T14:29:39.590Z,19.6
2017-10-31T14:30:47.672Z,19.6
2017-10-31T14:31:55.755Z,19.6
2017-10-31T14:33:03.840Z,19.5
2017-10-31T14:34:11.925Z,19.6
2017-10-31T14:35:20.011Z,19.6
2017-10-31T14:36:28.098Z,19.6
2017-10-31T14:37:36.185Z,19.6
2017-10-31T14:38:44.265Z,19.5
2017-10-31T14:39:52.391Z,19.6
2017-10-31T14:41:00.436Z,19.6
2017-10-31T14:42:08.519Z,19.6
2017-10-31T14:43:16.604Z,19.6
2017-10-31T14:44:24.697Z,19.7
2017-10-31T14:45:32.774Z,19.7
2017-10-31T14:46:40.861Z,19.7
2017-10-31T14:47:48.945Z,19.6
2017-10-31T14:48:57.232Z,19.7
2017-10-31T14:50:05.115Z,19.7
2017-10-31T14:51:13.201Z,19.7
2017-10-31T14:52:21.284Z,19.8
2017-10-31T14:53:29.370Z,19.7
2017-10-31T14:54:37.454Z,19.8
2017-10-31T14:55:45.546Z,19.8
2017-10-31T14:56:53.626Z,19.7
2017-10-31T14:58:01.717Z,19.8
2017-10-31T14:59:09.795Z,19.8
2017-10-31T15:00:17.884Z,19.8
2017-10-31T15:01:25.965Z,19.8
2017-10-31T15:02:34.070Z,19.9
2017-10-31T15:03:42.144Z,19.8
2017-10-31T15:04:50.230Z,19.8
2017-10-31T15:05:58.314Z,19.9